Organ Cave, West Virginia
Current Conditions -  °F | °C
As of 7:30 AM on Saturday 01 Nov 2014 (Local Time) from KLWB Reporting Station
Drizzle Drizzle  
Wind Chill: 39°   Ceiling: 4400
Heat Index: 39°   Visibility: 10mi
Dew Point: 37°   Wind: 0mph
Humidity: 91%   Direction: NA
Pressure: 29.82"   Gusts: NA
Location:  37.7253°N, 80.4371°W
Report Text: KLWB 011130Z AUTO 00000KT 10SM -DZ SCT028 BKN044 OVC050 04/03 A2982 RMK AO2 T00400026
Loading
Personal Weather Stations






























Interactive Weather Map
Tropical Storm Tracking
New forecast layout! Learn more

10-Day Weather Forecast

Advertisements
Track Severe Weather on mobile